sensor_id;sensor_type;location;lat;lon;timestamp;P1;durP1;ratioP1;P2;durP2;ratioP2
77828;SDS011;67019;51.034;3.728;2023-09-08T00:02:18;15.08;;;11.73;;
77828;SDS011;67019;51.034;3.728;2023-09-08T00:04:46;16.15;;;11.65;;
77828;SDS011;67019;51.034;3.728;2023-09-08T00:07:13;19.25;;;13.45;;
77828;SDS011;67019;51.034;3.728;2023-09-08T00:09:41;18.23;;;13.00;;
77828;SDS011;67019;51.034;3.728;2023-09-08T00:12:08;17.70;;;12.75;;
77828;SDS011;67019;51.034;3.728;2023-09-08T00:14:36;20.27;;;13.05;;
77828;SDS011;67019;51.034;3.728;2023-09-08T00:17:04;22.13;;;12.98;;
77828;SDS011;67019;51.034;3.728;2023-09-08T00:19:32;18.95;;;12.30;;
77828;SDS011;67019;51.034;3.728;2023-09-08T00:21:59;18.62;;;12.15;;
77828;SDS011;67019;51.034;3.728;2023-09-08T00:24:27;23.85;;;12.18;;
77828;SDS011;67019;51.034;3.728;2023-09-08T00:26:55;18.90;;;13.15;;
77828;SDS011;67019;51.034;3.728;2023-09-08T00:29:22;14.80;;;12.68;;
77828;SDS011;67019;51.034;3.728;2023-09-08T00:32:05;14.73;;;12.05;;
77828;SDS011;67019;51.034;3.728;2023-09-08T00:37:56;24.05;;;12.65;;
77828;SDS011;67019;51.034;3.728;2023-09-08T00:43:51;15.03;;;12.10;;
77828;SDS011;67019;51.034;3.728;2023-09-08T00:49:23;17.07;;;12.85;;
77828;SDS011;67019;51.034;3.728;2023-09-08T00:51:53;15.28;;;12.75;;
77828;SDS011;67019;51.034;3.728;2023-09-08T01:00:31;19.85;;;12.85;;
77828;SDS011;67019;51.034;3.728;2023-09-08T01:03:04;20.57;;;13.88;;
77828;SDS011;67019;51.034;3.728;2023-09-08T01:05:32;17.25;;;13.25;;
77828;SDS011;67019;51.034;3.728;2023-09-08T01:08:08;20.35;;;13.50;;
77828;SDS011;67019;51.034;3.728;2023-09-08T01:23:40;19.10;;;13.55;;
77828;SDS011;67019;51.034;3.728;2023-09-08T01:26:41;17.77;;;13.10;;
77828;SDS011;67019;51.034;3.728;2023-09-08T01:29:09;18.05;;;13.58;;
77828;SDS011;67019;51.034;3.728;2023-09-08T01:34:44;20.62;;;13.18;;
77828;SDS011;67019;51.034;3.728;2023-09-08T01:37:12;16.82;;;14.03;;
77828;SDS011;67019;51.034;3.728;2023-09-08T01:39:42;19.67;;;12.82;;
77828;SDS011;67019;51.034;3.728;2023-09-08T01:42:09;20.92;;;12.05;;
77828;SDS011;67019;51.034;3.728;2023-09-08T01:44:39;18.55;;;12.10;;
77828;SDS011;67019;51.034;3.728;2023-09-08T01:47:06;16.97;;;12.75;;
77828;SDS011;67019;51.034;3.728;2023-09-08T01:49:35;23.60;;;10.98;;
77828;SDS011;67019;51.034;3.728;2023-09-08T01:52:04;22.82;;;11.93;;
77828;SDS011;67019;51.034;3.728;2023-09-08T01:54:32;21.17;;;12.15;;
77828;SDS011;67019;51.034;3.728;2023-09-08T01:57:00;17.73;;;12.30;;
77828;SDS011;67019;51.034;3.728;2023-09-08T01:59:29;17.57;;;11.68;;
77828;SDS011;67019;51.034;3.728;2023-09-08T02:01:58;19.17;;;11.45;;
77828;SDS011;67019;51.034;3.728;2023-09-08T02:04:35;23.87;;;11.57;;
77828;SDS011;67019;51.034;3.728;2023-09-08T02:07:03;15.05;;;11.18;;
77828;SDS011;67019;51.034;3.728;2023-09-08T02:09:35;19.90;;;10.93;;
77828;SDS011;67019;51.034;3.728;2023-09-08T02:12:03;19.75;;;11.10;;
77828;SDS011;67019;51.034;3.728;2023-09-08T02:14:31;14.50;;;10.28;;
77828;SDS011;67019;51.034;3.728;2023-09-08T02:16:59;17.20;;;10.70;;
77828;SDS011;67019;51.034;3.728;2023-09-08T02:19:27;13.05;;;11.20;;
77828;SDS011;67019;51.034;3.728;2023-09-08T02:22:00;16.73;;;12.10;;
77828;SDS011;67019;51.034;3.728;2023-09-08T02:27:50;20.08;;;12.40;;
77828;SDS011;67019;51.034;3.728;2023-09-08T02:36:43;20.75;;;11.80;;
77828;SDS011;67019;51.034;3.728;2023-09-08T02:39:13;18.48;;;11.83;;
77828;SDS011;67019;51.034;3.728;2023-09-08T02:41:40;19.95;;;12.33;;
77828;SDS011;67019;51.034;3.728;2023-09-08T02:44:17;20.82;;;12.15;;
77828;SDS011;67019;51.034;3.728;2023-09-08T02:49:33;16.65;;;12.33;;
77828;SDS011;67019;51.034;3.728;2023-09-08T02:52:01;16.90;;;12.58;;
77828;SDS011;67019;51.034;3.728;2023-09-08T02:54:30;17.37;;;12.88;;
77828;SDS011;67019;51.034;3.728;2023-09-08T02:56:57;15.72;;;11.85;;
77828;SDS011;67019;51.034;3.728;2023-09-08T02:59:28;19.92;;;12.23;;
77828;SDS011;67019;51.034;3.728;2023-09-08T03:01:55;17.15;;;13.13;;
77828;SDS011;67019;51.034;3.728;2023-09-08T03:04:24;14.70;;;12.90;;
77828;SDS011;67019;51.034;3.728;2023-09-08T03:06:53;17.42;;;12.75;;
77828;SDS011;67019;51.034;3.728;2023-09-08T03:09:23;18.17;;;13.40;;
77828;SDS011;67019;51.034;3.728;2023-09-08T03:11:50;20.27;;;14.40;;
77828;SDS011;67019;51.034;3.728;2023-09-08T03:17:05;21.00;;;13.72;;
77828;SDS011;67019;51.034;3.728;2023-09-08T03:19:32;17.90;;;13.45;;
77828;SDS011;67019;51.034;3.728;2023-09-08T03:22:00;19.17;;;13.15;;
77828;SDS011;67019;51.034;3.728;2023-09-08T03:24:28;18.62;;;13.75;;
77828;SDS011;67019;51.034;3.728;2023-09-08T03:29:43;22.75;;;13.32;;
77828;SDS011;67019;51.034;3.728;2023-09-08T03:32:13;18.27;;;13.08;;
77828;SDS011;67019;51.034;3.728;2023-09-08T03:34:40;22.60;;;15.40;;
77828;SDS011;67019;51.034;3.728;2023-09-08T03:37:09;18.48;;;15.10;;
77828;SDS011;67019;51.034;3.728;2023-09-08T03:39:37;19.07;;;14.03;;
77828;SDS011;67019;51.034;3.728;2023-09-08T03:42:05;18.05;;;14.45;;
77828;SDS011;67019;51.034;3.728;2023-09-08T03:44:32;19.17;;;14.43;;
77828;SDS011;67019;51.034;3.728;2023-09-08T03:47:00;16.80;;;14.45;;
77828;SDS011;67019;51.034;3.728;2023-09-08T03:49:28;15.55;;;13.53;;
77828;SDS011;67019;51.034;3.728;2023-09-08T03:51:56;18.67;;;14.25;;
77828;SDS011;67019;51.034;3.728;2023-09-08T03:54:24;15.93;;;13.30;;
77828;SDS011;67019;51.034;3.728;2023-09-08T03:56:52;30.12;;;16.15;;
77828;SDS011;67019;51.034;3.728;2023-09-08T03:59:19;22.70;;;14.40;;
77828;SDS011;67019;51.034;3.728;2023-09-08T04:01:49;18.30;;;14.18;;
77828;SDS011;67019;51.034;3.728;2023-09-08T04:04:17;17.92;;;13.98;;
77828;SDS011;67019;51.034;3.728;2023-09-08T04:06:45;17.95;;;13.88;;
77828;SDS011;67019;51.034;3.728;2023-09-08T04:09:13;21.87;;;13.48;;
77828;SDS011;67019;51.034;3.728;2023-09-08T04:11:41;18.92;;;13.48;;
77828;SDS011;67019;51.034;3.728;2023-09-08T04:14:08;22.58;;;14.95;;
77828;SDS011;67019;51.034;3.728;2023-09-08T04:16:39;22.87;;;14.07;;
77828;SDS011;67019;51.034;3.728;2023-09-08T04:19:06;19.30;;;12.73;;
77828;SDS011;67019;51.034;3.728;2023-09-08T04:21:34;21.25;;;13.38;;
77828;SDS011;67019;51.034;3.728;2023-09-08T04:24:01;20.08;;;12.90;;
77828;SDS011;67019;51.034;3.728;2023-09-08T04:26:30;21.07;;;13.65;;
77828;SDS011;67019;51.034;3.728;2023-09-08T04:28:57;20.17;;;12.90;;
77828;SDS011;67019;51.034;3.728;2023-09-08T04:31:27;17.70;;;13.45;;
77828;SDS011;67019;51.034;3.728;2023-09-08T04:33:54;15.53;;;13.35;;
77828;SDS011;67019;51.034;3.728;2023-09-08T04:36:22;15.28;;;13.55;;
77828;SDS011;67019;51.034;3.728;2023-09-08T04:38:49;22.48;;;13.95;;
77828;SDS011;67019;51.034;3.728;2023-09-08T04:41:18;16.45;;;13.43;;
77828;SDS011;67019;51.034;3.728;2023-09-08T04:43:46;21.05;;;14.23;;
77828;SDS011;67019;51.034;3.728;2023-09-08T04:46:13;20.37;;;14.47;;
77828;SDS011;67019;51.034;3.728;2023-09-08T04:48:41;18.77;;;12.58;;
77828;SDS011;67019;51.034;3.728;2023-09-08T04:51:10;17.55;;;12.25;;
77828;SDS011;67019;51.034;3.728;2023-09-08T04:53:39;19.00;;;12.40;;
77828;SDS011;67019;51.034;3.728;2023-09-08T04:56:06;18.00;;;13.13;;
77828;SDS011;67019;51.034;3.728;2023-09-08T04:58:34;15.78;;;12.90;;
77828;SDS011;67019;51.034;3.728;2023-09-08T05:01:01;21.20;;;13.18;;
77828;SDS011;67019;51.034;3.728;2023-09-08T05:03:29;19.48;;;13.85;;
77828;SDS011;67019;51.034;3.728;2023-09-08T05:05:58;17.57;;;12.25;;
77828;SDS011;67019;51.034;3.728;2023-09-08T05:08:27;17.10;;;12.50;;
77828;SDS011;67019;51.034;3.728;2023-09-08T05:10:54;16.23;;;12.68;;
77828;SDS011;67019;51.034;3.728;2023-09-08T05:13:22;19.30;;;12.23;;
77828;SDS011;67019;51.034;3.728;2023-09-08T05:15:51;14.18;;;11.57;;
77828;SDS011;67019;51.034;3.728;2023-09-08T05:18:20;18.67;;;12.95;;
77828;SDS011;67019;51.034;3.728;2023-09-08T05:23:58;16.15;;;11.35;;
77828;SDS011;67019;51.034;3.728;2023-09-08T05:29:47;16.57;;;11.65;;
77828;SDS011;67019;51.034;3.728;2023-09-08T05:32:14;18.52;;;11.55;;
77828;SDS011;67019;51.034;3.728;2023-09-08T05:34:44;20.57;;;11.15;;
77828;SDS011;67019;51.034;3.728;2023-09-08T05:37:11;13.43;;;11.30;;
77828;SDS011;67019;51.034;3.728;2023-09-08T05:39:39;21.80;;;11.22;;
77828;SDS011;67019;51.034;3.728;2023-09-08T05:42:07;16.12;;;10.40;;
77828;SDS011;67019;51.034;3.728;2023-09-08T05:47:56;18.45;;;10.15;;
77828;SDS011;67019;51.034;3.728;2023-09-08T05:50:23;19.60;;;11.20;;
77828;SDS011;67019;51.034;3.728;2023-09-08T05:52:53;18.75;;;11.15;;
77828;SDS011;67019;51.034;3.728;2023-09-08T05:55:20;18.42;;;11.53;;
77828;SDS011;67019;51.034;3.728;2023-09-08T05:57:48;31.02;;;12.00;;
77828;SDS011;67019;51.034;3.728;2023-09-08T06:00:18;20.27;;;12.73;;
77828;SDS011;67019;51.034;3.728;2023-09-08T06:02:45;19.40;;;11.80;;
77828;SDS011;67019;51.034;3.728;2023-09-08T06:05:13;19.80;;;12.50;;
77828;SDS011;67019;51.034;3.728;2023-09-08T06:07:40;22.60;;;12.70;;
77828;SDS011;67019;51.034;3.728;2023-09-08T06:10:08;21.93;;;12.35;;
77828;SDS011;67019;51.034;3.728;2023-09-08T06:12:36;28.05;;;14.95;;
77828;SDS011;67019;51.034;3.728;2023-09-08T06:15:03;32.80;;;14.23;;
77828;SDS011;67019;51.034;3.728;2023-09-08T06:17:33;20.90;;;13.25;;
77828;SDS011;67019;51.034;3.728;2023-09-08T06:20:04;17.75;;;12.50;;
77828;SDS011;67019;51.034;3.728;2023-09-08T06:25:01;18.07;;;11.90;;
77828;SDS011;67019;51.034;3.728;2023-09-08T06:27:30;27.73;;;12.98;;
77828;SDS011;67019;51.034;3.728;2023-09-08T06:29:57;18.20;;;13.10;;
77828;SDS011;67019;51.034;3.728;2023-09-08T06:32:25;21.37;;;14.80;;
77828;SDS011;67019;51.034;3.728;2023-09-08T06:34:53;17.17;;;12.33;;
77828;SDS011;67019;51.034;3.728;2023-09-08T06:37:20;17.30;;;11.90;;
77828;SDS011;67019;51.034;3.728;2023-09-08T06:39:48;47.85;;;14.07;;
77828;SDS011;67019;51.034;3.728;2023-09-08T06:42:15;18.00;;;12.30;;
77828;SDS011;67019;51.034;3.728;2023-09-08T06:44:43;16.10;;;12.03;;
77828;SDS011;67019;51.034;3.728;2023-09-08T06:47:11;27.22;;;13.98;;
77828;SDS011;67019;51.034;3.728;2023-09-08T06:49:38;21.17;;;11.75;;
77828;SDS011;67019;51.034;3.728;2023-09-08T06:52:07;17.05;;;12.28;;
77828;SDS011;67019;51.034;3.728;2023-09-08T06:54:34;21.23;;;11.75;;
77828;SDS011;67019;51.034;3.728;2023-09-08T06:57:02;28.07;;;11.80;;
77828;SDS011;67019;51.034;3.728;2023-09-08T06:59:30;39.40;;;21.62;;
77828;SDS011;67019;51.034;3.728;2023-09-08T07:01:57;136.97;;;64.45;;
77828;SDS011;67019;51.034;3.728;2023-09-08T07:04:25;55.33;;;28.47;;
77828;SDS011;67019;51.034;3.728;2023-09-08T07:06:52;20.68;;;12.55;;
77828;SDS011;67019;51.034;3.728;2023-09-08T07:09:20;40.03;;;12.55;;
77828;SDS011;67019;51.034;3.728;2023-09-08T07:11:48;36.83;;;12.50;;
77828;SDS011;67019;51.034;3.728;2023-09-08T07:14:15;19.57;;;11.73;;
77828;SDS011;67019;51.034;3.728;2023-09-08T07:16:43;28.87;;;10.88;;
77828;SDS011;67019;51.034;3.728;2023-09-08T07:19:11;14.38;;;9.13;;
77828;SDS011;67019;51.034;3.728;2023-09-08T07:21:40;15.08;;;9.83;;
77828;SDS011;67019;51.034;3.728;2023-09-08T07:24:09;15.38;;;9.73;;
77828;SDS011;67019;51.034;3.728;2023-09-08T07:26:37;17.02;;;10.85;;
77828;SDS011;67019;51.034;3.728;2023-09-08T07:29:05;10.40;;;9.28;;
77828;SDS011;67019;51.034;3.728;2023-09-08T07:31:33;15.30;;;10.00;;
77828;SDS011;67019;51.034;3.728;2023-09-08T07:34:01;17.70;;;9.15;;
77828;SDS011;67019;51.034;3.728;2023-09-08T07:36:28;12.45;;;9.50;;
77828;SDS011;67019;51.034;3.728;2023-09-08T07:38:56;16.35;;;8.93;;
77828;SDS011;67019;51.034;3.728;2023-09-08T07:41:24;18.07;;;9.70;;
77828;SDS011;67019;51.034;3.728;2023-09-08T07:43:52;14.75;;;11.33;;
77828;SDS011;67019;51.034;3.728;2023-09-08T07:46:19;22.48;;;14.87;;
77828;SDS011;67019;51.034;3.728;2023-09-08T07:48:49;22.40;;;11.78;;
77828;SDS011;67019;51.034;3.728;2023-09-08T07:51:19;12.13;;;8.35;;
77828;SDS011;67019;51.034;3.728;2023-09-08T07:53:46;12.63;;;8.90;;
77828;SDS011;67019;51.034;3.728;2023-09-08T07:56:13;15.78;;;9.65;;
77828;SDS011;67019;51.034;3.728;2023-09-08T07:58:41;14.38;;;9.13;;
77828;SDS011;67019;51.034;3.728;2023-09-08T08:01:09;12.00;;;8.65;;
77828;SDS011;67019;51.034;3.728;2023-09-08T08:03:36;13.55;;;8.95;;
77828;SDS011;67019;51.034;3.728;2023-09-08T08:06:05;13.83;;;8.55;;
77828;SDS011;67019;51.034;3.728;2023-09-08T08:08:33;15.25;;;7.97;;
77828;SDS011;67019;51.034;3.728;2023-09-08T08:11:08;14.70;;;8.40;;
77828;SDS011;67019;51.034;3.728;2023-09-08T08:13:36;11.65;;;9.48;;
77828;SDS011;67019;51.034;3.728;2023-09-08T08:19:00;17.30;;;8.98;;
77828;SDS011;67019;51.034;3.728;2023-09-08T08:21:29;15.08;;;8.83;;
77828;SDS011;67019;51.034;3.728;2023-09-08T08:23:59;11.63;;;8.18;;
77828;SDS011;67019;51.034;3.728;2023-09-08T08:26:26;15.50;;;8.88;;
77828;SDS011;67019;51.034;3.728;2023-09-08T08:28:56;18.45;;;8.98;;
77828;SDS011;67019;51.034;3.728;2023-09-08T08:31:23;25.15;;;8.95;;
77828;SDS011;67019;51.034;3.728;2023-09-08T08:33:52;12.33;;;8.95;;
77828;SDS011;67019;51.034;3.728;2023-09-08T08:36:20;17.27;;;7.85;;
77828;SDS011;67019;51.034;3.728;2023-09-08T08:38:48;13.90;;;8.53;;
77828;SDS011;67019;51.034;3.728;2023-09-08T08:41:15;12.03;;;8.45;;
77828;SDS011;67019;51.034;3.728;2023-09-08T08:43:43;12.60;;;7.55;;
77828;SDS011;67019;51.034;3.728;2023-09-08T08:46:12;9.25;;;6.67;;
77828;SDS011;67019;51.034;3.728;2023-09-08T08:48:52;13.67;;;7.17;;
77828;SDS011;67019;51.034;3.728;2023-09-08T08:54:48;12.37;;;7.28;;
77828;SDS011;67019;51.034;3.728;2023-09-08T09:00:10;14.20;;;7.35;;
77828;SDS011;67019;51.034;3.728;2023-09-08T09:02:37;11.05;;;7.62;;
77828;SDS011;67019;51.034;3.728;2023-09-08T09:08:42;15.03;;;7.65;;
77828;SDS011;67019;51.034;3.728;2023-09-08T09:13:57;14.38;;;7.65;;
77828;SDS011;67019;51.034;3.728;2023-09-08T09:16:25;13.00;;;7.87;;
77828;SDS011;67019;51.034;3.728;2023-09-08T09:18:58;13.93;;;7.70;;
77828;SDS011;67019;51.034;3.728;2023-09-08T09:21:24;20.88;;;9.33;;
77828;SDS011;67019;51.034;3.728;2023-09-08T09:34:22;14.95;;;9.80;;
77828;SDS011;67019;51.034;3.728;2023-09-08T09:46:36;11.78;;;6.90;;
77828;SDS011;67019;51.034;3.728;2023-09-08T09:49:05;15.55;;;7.58;;
77828;SDS011;67019;51.034;3.728;2023-09-08T10:41:32;9.95;;;7.55;;
77828;SDS011;67019;51.034;3.728;2023-09-08T10:44:03;8.85;;;7.58;;
77828;SDS011;67019;51.034;3.728;2023-09-08T10:46:34;13.13;;;6.80;;
77828;SDS011;67019;51.034;3.728;2023-09-08T10:49:05;11.90;;;6.37;;
77828;SDS011;67019;51.034;3.728;2023-09-08T11:28:50;9.10;;;6.45;;
77828;SDS011;67019;51.034;3.728;2023-09-08T12:32:32;29.75;;;6.25;;
77828;SDS011;67019;51.034;3.728;2023-09-08T12:35:01;16.87;;;7.28;;
77828;SDS011;67019;51.034;3.728;2023-09-08T12:44:22;17.87;;;8.23;;
77828;SDS011;67019;51.034;3.728;2023-09-08T13:06:15;8.05;;;4.30;;
77828;SDS011;67019;51.034;3.728;2023-09-08T13:08:44;10.37;;;5.10;;
77828;SDS011;67019;51.034;3.728;2023-09-08T13:11:12;5.50;;;3.87;;
77828;SDS011;67019;51.034;3.728;2023-09-08T13:13:39;10.63;;;3.72;;
77828;SDS011;67019;51.034;3.728;2023-09-08T13:22:52;21.60;;;5.00;;
77828;SDS011;67019;51.034;3.728;2023-09-08T13:28:43;10.23;;;4.40;;
77828;SDS011;67019;51.034;3.728;2023-09-08T13:46:56;16.00;;;4.47;;
77828;SDS011;67019;51.034;3.728;2023-09-08T13:49:25;6.90;;;3.92;;
77828;SDS011;67019;51.034;3.728;2023-09-08T13:51:55;11.85;;;5.05;;
77828;SDS011;67019;51.034;3.728;2023-09-08T14:07:31;11.65;;;5.08;;
77828;SDS011;67019;51.034;3.728;2023-09-08T14:09:58;11.85;;;5.35;;
77828;SDS011;67019;51.034;3.728;2023-09-08T14:22:52;14.98;;;6.50;;
77828;SDS011;67019;51.034;3.728;2023-09-08T14:25:27;10.63;;;6.78;;
77828;SDS011;67019;51.034;3.728;2023-09-08T14:41:20;7.75;;;5.87;;
77828;SDS011;67019;51.034;3.728;2023-09-08T15:23:27;8.68;;;5.67;;
77828;SDS011;67019;51.034;3.728;2023-09-08T15:25:57;8.78;;;4.70;;
77828;SDS011;67019;51.034;3.728;2023-09-08T15:30:53;10.10;;;4.87;;
77828;SDS011;67019;51.034;3.728;2023-09-08T15:33:23;9.88;;;4.85;;
77828;SDS011;67019;51.034;3.728;2023-09-08T15:35:53;9.48;;;5.05;;
77828;SDS011;67019;51.034;3.728;2023-09-08T15:38:23;6.40;;;4.70;;
77828;SDS011;67019;51.034;3.728;2023-09-08T15:44:17;7.58;;;4.85;;
77828;SDS011;67019;51.034;3.728;2023-09-08T15:46:46;6.22;;;4.55;;
77828;SDS011;67019;51.034;3.728;2023-09-08T15:49:15;7.83;;;4.85;;
77828;SDS011;67019;51.034;3.728;2023-09-08T15:51:42;6.28;;;4.58;;
77828;SDS011;67019;51.034;3.728;2023-09-08T15:54:10;9.50;;;5.08;;
77828;SDS011;67019;51.034;3.728;2023-09-08T16:03:02;7.83;;;5.95;;
77828;SDS011;67019;51.034;3.728;2023-09-08T16:08:38;12.78;;;8.80;;
77828;SDS011;67019;51.034;3.728;2023-09-08T16:11:06;8.55;;;7.37;;
77828;SDS011;67019;51.034;3.728;2023-09-08T16:13:42;11.78;;;8.95;;
77828;SDS011;67019;51.034;3.728;2023-09-08T16:22:18;11.33;;;9.30;;
77828;SDS011;67019;51.034;3.728;2023-09-08T16:24:48;13.32;;;9.03;;
77828;SDS011;67019;51.034;3.728;2023-09-08T16:27:15;10.80;;;8.43;;
77828;SDS011;67019;51.034;3.728;2023-09-08T16:29:43;16.12;;;8.48;;
77828;SDS011;67019;51.034;3.728;2023-09-08T16:48:56;10.10;;;6.80;;
77828;SDS011;67019;51.034;3.728;2023-09-08T16:51:24;8.38;;;6.45;;
77828;SDS011;67019;51.034;3.728;2023-09-08T16:53:51;12.10;;;6.33;;
77828;SDS011;67019;51.034;3.728;2023-09-08T16:56:19;8.30;;;6.85;;
77828;SDS011;67019;51.034;3.728;2023-09-08T17:01:42;9.05;;;6.22;;
77828;SDS011;67019;51.034;3.728;2023-09-08T17:06:59;11.25;;;6.45;;
77828;SDS011;67019;51.034;3.728;2023-09-08T17:09:26;11.63;;;6.70;;
77828;SDS011;67019;51.034;3.728;2023-09-08T17:11:54;12.98;;;6.75;;
77828;SDS011;67019;51.034;3.728;2023-09-08T17:14:22;6.80;;;6.15;;
77828;SDS011;67019;51.034;3.728;2023-09-08T17:16:50;14.70;;;6.75;;
77828;SDS011;67019;51.034;3.728;2023-09-08T17:19:18;9.48;;;6.60;;
77828;SDS011;67019;51.034;3.728;2023-09-08T17:21:46;10.18;;;6.25;;
77828;SDS011;67019;51.034;3.728;2023-09-08T17:24:14;9.15;;;6.83;;
77828;SDS011;67019;51.034;3.728;2023-09-08T17:26:42;7.00;;;5.72;;
77828;SDS011;67019;51.034;3.728;2023-09-08T17:29:11;11.20;;;6.30;;
77828;SDS011;67019;51.034;3.728;2023-09-08T17:31:39;12.80;;;6.65;;
77828;SDS011;67019;51.034;3.728;2023-09-08T17:34:07;9.63;;;6.75;;
77828;SDS011;67019;51.034;3.728;2023-09-08T17:36:36;8.75;;;5.45;;
77828;SDS011;67019;51.034;3.728;2023-09-08T17:39:03;15.58;;;6.58;;
77828;SDS011;67019;51.034;3.728;2023-09-08T17:41:39;8.53;;;5.95;;
77828;SDS011;67019;51.034;3.728;2023-09-08T17:44:03;12.82;;;6.20;;
77828;SDS011;67019;51.034;3.728;2023-09-08T17:46:31;11.65;;;6.12;;
77828;SDS011;67019;51.034;3.728;2023-09-08T17:49:00;8.90;;;6.65;;
77828;SDS011;67019;51.034;3.728;2023-09-08T17:51:28;10.68;;;6.67;;
77828;SDS011;67019;51.034;3.728;2023-09-08T17:53:57;9.78;;;6.83;;
77828;SDS011;67019;51.034;3.728;2023-09-08T17:56:26;9.88;;;6.92;;
77828;SDS011;67019;51.034;3.728;2023-09-08T17:58:55;13.58;;;7.10;;
77828;SDS011;67019;51.034;3.728;2023-09-08T18:01:22;14.63;;;6.95;;
77828;SDS011;67019;51.034;3.728;2023-09-08T18:03:50;13.18;;;8.35;;
77828;SDS011;67019;51.034;3.728;2023-09-08T18:06:19;14.00;;;7.93;;
77828;SDS011;67019;51.034;3.728;2023-09-08T18:08:47;16.00;;;8.35;;
77828;SDS011;67019;51.034;3.728;2023-09-08T18:11:16;9.58;;;8.30;;
77828;SDS011;67019;51.034;3.728;2023-09-08T18:13:46;14.35;;;8.65;;
77828;SDS011;67019;51.034;3.728;2023-09-08T18:16:15;11.43;;;8.50;;
77828;SDS011;67019;51.034;3.728;2023-09-08T18:18:43;13.98;;;8.30;;
77828;SDS011;67019;51.034;3.728;2023-09-08T18:21:12;11.18;;;7.80;;
77828;SDS011;67019;51.034;3.728;2023-09-08T18:23:40;17.17;;;8.75;;
77828;SDS011;67019;51.034;3.728;2023-09-08T18:26:09;11.87;;;8.80;;
77828;SDS011;67019;51.034;3.728;2023-09-08T18:28:37;13.50;;;8.63;;
77828;SDS011;67019;51.034;3.728;2023-09-08T18:31:06;15.10;;;8.58;;
77828;SDS011;67019;51.034;3.728;2023-09-08T18:33:34;13.75;;;8.85;;
77828;SDS011;67019;51.034;3.728;2023-09-08T18:36:01;14.43;;;9.58;;
77828;SDS011;67019;51.034;3.728;2023-09-08T18:38:29;14.43;;;9.05;;
77828;SDS011;67019;51.034;3.728;2023-09-08T18:40:59;13.25;;;10.53;;
77828;SDS011;67019;51.034;3.728;2023-09-08T18:43:29;14.00;;;11.05;;
77828;SDS011;67019;51.034;3.728;2023-09-08T18:45:56;20.57;;;14.80;;
77828;SDS011;67019;51.034;3.728;2023-09-08T18:48:24;19.20;;;15.93;;
77828;SDS011;67019;51.034;3.728;2023-09-08T18:50:52;21.00;;;17.23;;
77828;SDS011;67019;51.034;3.728;2023-09-08T18:53:19;24.65;;;17.70;;
77828;SDS011;67019;51.034;3.728;2023-09-08T18:55:47;25.30;;;19.48;;
77828;SDS011;67019;51.034;3.728;2023-09-08T18:58:18;32.83;;;20.02;;
77828;SDS011;67019;51.034;3.728;2023-09-08T19:00:47;23.20;;;18.90;;
77828;SDS011;67019;51.034;3.728;2023-09-08T19:03:16;33.42;;;21.80;;
77828;SDS011;67019;51.034;3.728;2023-09-08T19:05:45;24.32;;;19.25;;
77828;SDS011;67019;51.034;3.728;2023-09-08T19:08:13;29.82;;;21.73;;
77828;SDS011;67019;51.034;3.728;2023-09-08T19:10:42;30.52;;;20.88;;
77828;SDS011;67019;51.034;3.728;2023-09-08T19:13:11;28.75;;;21.00;;
77828;SDS011;67019;51.034;3.728;2023-09-08T19:15:39;37.35;;;22.95;;
77828;SDS011;67019;51.034;3.728;2023-09-08T19:18:06;27.67;;;23.38;;
77828;SDS011;67019;51.034;3.728;2023-09-08T19:20:34;30.88;;;23.05;;
77828;SDS011;67019;51.034;3.728;2023-09-08T19:23:02;30.92;;;24.12;;
77828;SDS011;67019;51.034;3.728;2023-09-08T19:25:30;29.80;;;24.12;;
77828;SDS011;67019;51.034;3.728;2023-09-08T19:27:59;24.77;;;20.70;;
77828;SDS011;67019;51.034;3.728;2023-09-08T19:30:27;25.05;;;19.45;;
77828;SDS011;67019;51.034;3.728;2023-09-08T19:32:55;19.95;;;17.02;;
77828;SDS011;67019;51.034;3.728;2023-09-08T19:35:24;23.52;;;15.13;;
77828;SDS011;67019;51.034;3.728;2023-09-08T19:37:53;19.73;;;13.32;;
77828;SDS011;67019;51.034;3.728;2023-09-08T19:40:22;18.12;;;13.58;;
77828;SDS011;67019;51.034;3.728;2023-09-08T19:42:49;17.23;;;13.38;;
77828;SDS011;67019;51.034;3.728;2023-09-08T19:45:19;15.65;;;10.65;;
77828;SDS011;67019;51.034;3.728;2023-09-08T19:47:46;15.75;;;10.05;;
77828;SDS011;67019;51.034;3.728;2023-09-08T19:50:14;16.48;;;10.60;;
77828;SDS011;67019;51.034;3.728;2023-09-08T19:52:43;19.60;;;9.93;;
77828;SDS011;67019;51.034;3.728;2023-09-08T19:55:11;16.25;;;11.30;;
77828;SDS011;67019;51.034;3.728;2023-09-08T19:57:38;13.88;;;11.22;;
77828;SDS011;67019;51.034;3.728;2023-09-08T20:00:08;14.80;;;11.03;;
77828;SDS011;67019;51.034;3.728;2023-09-08T20:02:35;15.60;;;11.97;;
77828;SDS011;67019;51.034;3.728;2023-09-08T20:07:52;17.30;;;12.73;;
77828;SDS011;67019;51.034;3.728;2023-09-08T20:10:19;21.77;;;15.08;;
77828;SDS011;67019;51.034;3.728;2023-09-08T20:12:49;22.32;;;12.68;;
77828;SDS011;67019;51.034;3.728;2023-09-08T20:15:17;21.15;;;16.40;;
77828;SDS011;67019;51.034;3.728;2023-09-08T20:17:44;20.23;;;14.63;;
77828;SDS011;67019;51.034;3.728;2023-09-08T20:20:12;20.17;;;14.47;;
77828;SDS011;67019;51.034;3.728;2023-09-08T20:22:41;18.05;;;14.55;;
77828;SDS011;67019;51.034;3.728;2023-09-08T20:25:09;46.30;;;32.05;;
77828;SDS011;67019;51.034;3.728;2023-09-08T20:27:41;27.73;;;20.75;;
77828;SDS011;67019;51.034;3.728;2023-09-08T20:33:04;29.65;;;20.68;;
77828;SDS011;67019;51.034;3.728;2023-09-08T20:35:36;33.70;;;25.27;;
77828;SDS011;67019;51.034;3.728;2023-09-08T20:38:08;32.42;;;23.77;;
77828;SDS011;67019;51.034;3.728;2023-09-08T20:46:53;34.33;;;22.77;;
77828;SDS011;67019;51.034;3.728;2023-09-08T20:49:21;28.95;;;21.93;;
77828;SDS011;67019;51.034;3.728;2023-09-08T21:01:20;38.80;;;25.17;;
77828;SDS011;67019;51.034;3.728;2023-09-08T21:03:49;35.23;;;26.45;;
77828;SDS011;67019;51.034;3.728;2023-09-08T21:06:19;34.50;;;24.90;;
77828;SDS011;67019;51.034;3.728;2023-09-08T21:12:15;36.45;;;25.00;;
77828;SDS011;67019;51.034;3.728;2023-09-08T21:14:43;37.95;;;26.57;;
77828;SDS011;67019;51.034;3.728;2023-09-08T21:17:11;35.30;;;26.80;;
77828;SDS011;67019;51.034;3.728;2023-09-08T21:25:56;32.63;;;27.10;;
77828;SDS011;67019;51.034;3.728;2023-09-08T21:31:29;33.75;;;26.37;;
77828;SDS011;67019;51.034;3.728;2023-09-08T21:36:46;35.85;;;27.75;;
77828;SDS011;67019;51.034;3.728;2023-09-08T21:39:14;32.60;;;26.52;;
77828;SDS011;67019;51.034;3.728;2023-09-08T21:41:42;40.67;;;29.52;;
77828;SDS011;67019;51.034;3.728;2023-09-08T21:44:09;38.73;;;27.02;;
77828;SDS011;67019;51.034;3.728;2023-09-08T21:46:37;39.75;;;28.17;;
77828;SDS011;67019;51.034;3.728;2023-09-08T21:49:07;34.85;;;27.82;;
77828;SDS011;67019;51.034;3.728;2023-09-08T21:54:57;40.50;;;29.80;;
77828;SDS011;67019;51.034;3.728;2023-09-08T22:03:50;41.00;;;30.52;;
77828;SDS011;67019;51.034;3.728;2023-09-08T22:06:18;38.42;;;30.37;;
77828;SDS011;67019;51.034;3.728;2023-09-08T22:08:46;39.73;;;31.25;;
77828;SDS011;67019;51.034;3.728;2023-09-08T22:14:48;36.63;;;30.12;;
77828;SDS011;67019;51.034;3.728;2023-09-08T22:33:39;35.92;;;31.27;;
77828;SDS011;67019;51.034;3.728;2023-09-08T22:36:08;38.92;;;29.63;;
77828;SDS011;67019;51.034;3.728;2023-09-08T22:38:37;38.38;;;30.17;;
77828;SDS011;67019;51.034;3.728;2023-09-08T22:41:06;46.53;;;31.90;;
77828;SDS011;67019;51.034;3.728;2023-09-08T22:43:35;45.45;;;33.02;;